Ankergracht — PCQL — position and weather

sailwx.info

Track history (hours):
 
Tides and Currents Weather Stations Pressure Air Temp Water Temp Dewpoint Dewpoint Depression Visibility Wind Speed Wind Dir Waves Ship Positions

Ankergracht

Last reported at 2014-Aug-29 10:16 UTC. Time now 2014-Aug-30 02:32 UTC.
Position N 26°22' W 079°24'.

Length 130 m; beam 19 m; draft 9 m.

Type: Cargo ship. MMSI: 244852000.

Date/timePositionNaut miles runAvg speedWind from/ knotsBaromVisibWave heightAir tempDewpointWater temp
2014-Aug-29 10:16N 26°22' W 079°24'1014.0
2014-Aug-29 09:34N 26°12' W 079°25'1413.8
2014-Aug-29 08:33N 25°59' W 079°27'  
2014-Aug-26 07:28N 29°60' W 090°25'1010.4
2014-Aug-26 06:33N 30°03' W 090°36'1211.6
2014-Aug-26 05:33N 29°59' W 090°48'14 0.7
2014-Aug-25 10:18N 30°08' W 091°01'4 5.8
2014-Aug-25 09:33N 30°08' W 090°56'4 3.5
2014-Aug-25 08:31N 30°05' W 090°54'0 0.0
2014-Aug-25 07:22N 30°05' W 090°54'0 0.0
2014-Aug-25 06:28N 30°05' W 090°54'0 0.0
2014-Aug-25 05:28N 30°05' W 090°54'0 0.0
2014-Aug-25 04:31N 30°05' W 090°54'0 0.0
2014-Aug-25 02:28N 30°05' W 090°54'0 0.0
2014-Aug-25 01:30N 30°05' W 090°54'0 0.0
2014-Aug-24 12:18N 30°05' W 090°54'0 0.0
2014-Aug-24 10:33N 30°05' W 090°54'0 0.0
2014-Aug-24 09:30N 30°05' W 090°54'0 0.0
2014-Aug-24 08:33N 30°05' W 090°54'0 0.0
2014-Aug-24 07:33N 30°05' W 090°54'0 0.0
2014-Aug-24 06:33N 30°05' W 090°54'0 0.0
2014-Aug-24 05:27N 30°05' W 090°54'0 0.0
2014-Aug-24 04:33N 30°05' W 090°54'3 3.4
2014-Aug-24 03:33N 30°03' W 090°51'7 7.0
2014-Aug-24 02:33N 30°01' W 090°43'10 9.8
2014-Aug-24 01:33N 30°03' W 090°32'9 8.6
2014-Aug-24 00:33N 29°58' W 090°24'10 8.4
2014-Aug-23 23:23N 29°56' W 090°13'  
2014-Aug-19 18:00N 13°18' W 080°30'7312.2 050 / 151013.0 5.4 2.023.021.728.3
2014-Aug-19 12:00N 12°06' W 080°18'   080 / 161009.0 2.2 1.027.025.028.5
Track history (hours):
 
Tides and Currents Weather Stations Pressure Air Temp Water Temp Dewpoint Dewpoint Depression Visibility Wind Speed Wind Dir Waves Ship Positions

Ankergracht

Last reported at 2014-Aug-29 10:16 UTC. Time now 2014-Aug-30 02:32 UTC.
Position N 26°22' W 079°24'.

Length 130 m; beam 19 m; draft 9 m.

Type: Cargo ship. MMSI: 244852000.

Date/timePositionNaut miles runAvg speedWind from/ knotsBaromVisibWave heightAir tempDewpointWater temp
2014-Aug-29 10:16N 26°22' W 079°24'1014.0
2014-Aug-29 09:34N 26°12' W 079°25'1413.8
2014-Aug-29 08:33N 25°59' W 079°27'  
2014-Aug-26 07:28N 29°60' W 090°25'1010.4
2014-Aug-26 06:33N 30°03' W 090°36'1211.6
2014-Aug-26 05:33N 29°59' W 090°48'14 0.7
2014-Aug-25 10:18N 30°08' W 091°01'4 5.8
2014-Aug-25 09:33N 30°08' W 090°56'4 3.5
2014-Aug-25 08:31N 30°05' W 090°54'0 0.0
2014-Aug-25 07:22N 30°05' W 090°54'0 0.0
2014-Aug-25 06:28N 30°05' W 090°54'0 0.0
2014-Aug-25 05:28N 30°05' W 090°54'0 0.0
2014-Aug-25 04:31N 30°05' W 090°54'0 0.0
2014-Aug-25 02:28N 30°05' W 090°54'0 0.0
2014-Aug-25 01:30N 30°05' W 090°54'0 0.0
2014-Aug-24 12:18N 30°05' W 090°54'0 0.0
2014-Aug-24 10:33N 30°05' W 090°54'0 0.0
2014-Aug-24 09:30N 30°05' W 090°54'0 0.0
2014-Aug-24 08:33N 30°05' W 090°54'0 0.0
2014-Aug-24 07:33N 30°05' W 090°54'0 0.0
2014-Aug-24 06:33N 30°05' W 090°54'0 0.0
2014-Aug-24 05:27N 30°05' W 090°54'0 0.0
2014-Aug-24 04:33N 30°05' W 090°54'3 3.4
2014-Aug-24 03:33N 30°03' W 090°51'7 7.0
2014-Aug-24 02:33N 30°01' W 090°43'10 9.8
2014-Aug-24 01:33N 30°03' W 090°32'9 8.6
2014-Aug-24 00:33N 29°58' W 090°24'10 8.4
2014-Aug-23 23:23N 29°56' W 090°13'  
2014-Aug-19 18:00N 13°18' W 080°30'7312.2 050 / 151013.0 5.4 2.023.021.728.3
2014-Aug-19 12:00N 12°06' W 080°18'   080 / 161009.0 2.2 1.027.025.028.5

Dump ship's entire track history